Oak Grove, Oregon
Current Conditions -  °F | °C
As of 4:53 AM on Thursday 23 Oct 2014 (Local Time) from KPDX Reporting Station
Light Rain Light Rain  
Wind Chill: 12°   Ceiling: 6500
Heat Index: 12°   Visibility: 8mi
Dew Point: 12°   Wind: 8mph
Humidity: 97%   Direction: 110°ESE
Pressure: 29.78"   Gusts: NA
Location:  45.42°N, 122.64°W
Report Text: KPDX 231153Z 11007KT 8SM -RA FEW042 OVC065 12/12 A2978 RMK AO2 SLP083 P0013 60016 70200 T01220117 10133 20122 56003
Loading
Personal Weather Stations






























Interactive Weather Map
Tropical Storm Tracking
New forecast layout! Learn more

10-Day Weather Forecast

Advertisements
Track Severe Weather on mobile